Time;durP1;ratioP1;P1;durP2;ratioP2;P2;SDS_P1;SDS_P2;PMS_P1;PMS_P2;Temp;Humidity;BMP_temperature;BMP_pressure;BME280_temperature;BME280_humidity;BME280_pressure;Samples;Min_cycle;Max_cycle;Signal;HPM_P1;HPM_P2
2023/12/08 00:00:18;;;;;;;20.17;11.90;;;3.20;99.90;;;;;;4940636;28;38046;-77
2023/12/08 00:02:44;;;;;;;23.77;13.40;;;3.20;99.90;;;;;;4921652;28;36143;-78
2023/12/08 00:05:10;;;;;;;20.27;13.10;;;3.20;99.90;;;;;;4939799;28;39441;-78
2023/12/08 00:07:36;;;;;;;20.00;13.10;;;3.20;99.90;;;;;;4939060;28;39190;-77
2023/12/08 00:10:03;;;;;;;20.07;13.27;;;3.20;99.90;;;;;;4941406;28;38372;-77
2023/12/08 00:12:29;;;;;;;18.90;13.10;;;3.10;99.90;;;;;;4938454;28;49216;-77
2023/12/08 00:14:56;;;;;;;18.90;13.00;;;3.20;99.90;;;;;;4925451;28;37911;-78
2023/12/08 00:17:22;;;;;;;17.20;12.97;;;3.10;99.90;;;;;;4937562;28;39527;-77
2023/12/08 00:19:48;;;;;;;18.83;12.57;;;3.10;99.90;;;;;;4926497;28;37903;-77
2023/12/08 00:22:14;;;;;;;18.70;12.43;;;3.10;99.90;;;;;;4925670;28;36134;-78
2023/12/08 00:24:40;;;;;;;22.17;14.43;;;3.10;99.90;;;;;;4939910;28;41034;-77
2023/12/08 00:27:07;;;;;;;20.23;13.93;;;3.10;99.90;;;;;;4941659;28;39684;-79
2023/12/08 00:29:33;;;;;;;20.03;13.63;;;3.10;99.90;;;;;;4942012;28;38195;-77
2023/12/08 00:31:59;;;;;;;20.97;14.00;;;3.00;99.90;;;;;;4926110;28;35929;-77
2023/12/08 00:34:26;;;;;;;24.53;13.70;;;3.10;99.90;;;;;;4924878;28;38956;-77
2023/12/08 00:36:52;;;;;;;19.70;13.83;;;3.00;99.90;;;;;;4942136;28;38391;-77
2023/12/08 00:39:18;;;;;;;25.73;14.93;;;3.00;99.90;;;;;;4927469;28;38819;-77
2023/12/08 00:41:44;;;;;;;19.57;13.97;;;3.00;99.90;;;;;;4952611;28;36435;-77
2023/12/08 00:44:11;;;;;;;24.27;16.07;;;3.00;99.90;;;;;;4945823;28;40278;-77
2023/12/08 00:46:37;;;;;;;23.03;15.07;;;3.00;99.90;;;;;;4925374;28;38101;-78
2023/12/08 00:49:03;;;;;;;28.13;16.70;;;3.00;99.90;;;;;;4938341;28;37679;-78
2023/12/08 00:51:29;;;;;;;22.17;14.97;;;3.00;99.90;;;;;;4925415;28;36386;-77
2023/12/08 00:53:55;;;;;;;24.43;15.83;;;3.00;99.90;;;;;;4936223;28;38399;-78
2023/12/08 00:56:21;;;;;;;24.63;15.93;;;3.00;99.90;;;;;;4948032;28;38992;-78
2023/12/08 00:58:48;;;;;;;26.27;15.97;;;3.00;99.90;;;;;;4927117;28;40183;-78
2023/12/08 01:01:17;;;;;;;25.43;17.07;;;3.00;99.90;;;;;;4921417;28;36170;-78
2023/12/08 01:03:43;;;;;;;24.33;15.43;;;3.00;99.90;;;;;;4943071;28;38145;-78
2023/12/08 01:06:09;;;;;;;23.33;15.43;;;3.00;99.90;;;;;;4951134;28;37928;-78
2023/12/08 01:08:35;;;;;;;27.10;17.53;;;2.90;99.90;;;;;;4949441;28;39268;-78
2023/12/08 01:11:01;;;;;;;31.20;18.13;;;2.90;99.90;;;;;;4938891;28;37425;-78
2023/12/08 01:13:27;;;;;;;27.53;18.17;;;2.90;99.90;;;;;;4958131;28;38810;-77
2023/12/08 01:15:53;;;;;;;26.50;16.83;;;2.90;99.90;;;;;;4925652;28;38279;-77
2023/12/08 01:18:21;;;;;;;25.03;16.97;;;2.90;99.90;;;;;;4922125;28;37686;-78
2023/12/08 01:20:47;;;;;;;28.10;17.40;;;2.90;99.90;;;;;;4930084;28;36587;-77
2023/12/08 01:23:13;;;;;;;30.93;18.60;;;2.90;99.90;;;;;;4937164;28;38919;-78
2023/12/08 01:25:39;;;;;;;27.90;18.67;;;2.90;99.90;;;;;;4931262;28;38117;-77
2023/12/08 01:28:05;;;;;;;30.97;18.70;;;2.90;99.90;;;;;;4929986;28;37540;-76
2023/12/08 01:30:31;;;;;;;34.50;20.27;;;2.90;99.90;;;;;;4948016;28;37214;-78
2023/12/08 01:32:57;;;;;;;32.27;18.27;;;2.90;99.90;;;;;;4934319;28;39829;-78
2023/12/08 01:35:24;;;;;;;31.63;18.87;;;2.90;99.90;;;;;;4967349;28;37533;-78
2023/12/08 01:37:50;;;;;;;32.43;18.77;;;2.90;99.90;;;;;;4936766;28;38702;-78
2023/12/08 01:40:16;;;;;;;30.67;18.33;;;2.90;99.90;;;;;;4960758;28;36231;-77
2023/12/08 01:42:44;;;;;;;29.83;18.07;;;2.90;99.90;;;;;;4937759;28;39535;-78
2023/12/08 01:45:10;;;;;;;30.87;18.20;;;2.90;99.90;;;;;;4943315;28;37257;-78
2023/12/08 01:47:38;;;;;;;30.73;19.53;;;2.90;99.90;;;;;;4937116;28;36119;-77
2023/12/08 01:50:05;;;;;;;32.93;20.07;;;2.90;99.90;;;;;;4947085;28;37233;-77
2023/12/08 01:52:31;;;;;;;38.50;20.70;;;3.00;99.90;;;;;;4933780;28;46859;-78
2023/12/08 01:54:59;;;;;;;31.23;18.70;;;3.00;99.90;;;;;;4933612;28;38891;-78
2023/12/08 01:57:26;;;;;;;29.03;19.13;;;3.00;99.90;;;;;;4951639;28;38413;-78
2023/12/08 01:59:52;;;;;;;32.43;20.40;;;3.00;99.90;;;;;;4930152;28;36397;-78
2023/12/08 02:02:20;;;;;;;30.80;20.17;;;2.90;99.90;;;;;;5304954;23;38095;-78
2023/12/08 02:04:49;;;;;;;37.80;21.77;;;2.90;99.90;;;;;;4925928;28;44824;-77
2023/12/08 02:07:15;;;;;;;37.53;21.60;;;2.90;99.90;;;;;;4949340;28;39227;-76
2023/12/08 02:09:45;;;;;;;34.83;21.23;;;2.90;99.90;;;;;;4930736;28;37168;-77
2023/12/08 02:12:11;;;;;;;31.33;20.57;;;2.90;99.90;;;;;;4951429;28;38143;-77
2023/12/08 02:14:37;;;;;;;33.47;21.03;;;2.90;99.90;;;;;;4929435;28;37886;-76
2023/12/08 02:17:16;;;;;;;35.73;21.87;;;2.90;99.90;;;;;;4932358;28;37367;-77
2023/12/08 02:19:43;;;;;;;29.30;19.60;;;2.90;99.90;;;;;;4939126;28;36471;-77
2023/12/08 02:22:09;;;;;;;41.17;22.73;;;2.90;99.90;;;;;;4931820;28;38118;-77
2023/12/08 02:24:35;;;;;;;33.77;20.93;;;3.00;99.90;;;;;;4950482;28;38661;-77
2023/12/08 02:27:01;;;;;;;33.03;21.03;;;3.00;99.90;;;;;;4935052;28;38841;-78
2023/12/08 02:29:28;;;;;;;32.13;20.00;;;3.00;99.90;;;;;;4947697;28;38089;-78
2023/12/08 02:32:00;;;;;;;40.23;24.37;;;3.00;99.90;;;;;;4926357;28;39076;-77
2023/12/08 02:34:28;;;;;;;38.73;23.90;;;3.00;99.90;;;;;;4932056;28;46794;-79
2023/12/08 02:36:57;;;;;;;38.30;21.63;;;3.10;99.90;;;;;;4936075;28;40166;-77
2023/12/08 02:39:24;;;;;;;38.00;22.30;;;3.10;99.90;;;;;;4935859;28;37429;-77
2023/12/08 02:41:51;;;;;;;39.07;23.17;;;3.00;99.90;;;;;;4957583;28;39770;-78
2023/12/08 02:44:17;;;;;;;32.93;22.27;;;3.10;99.90;;;;;;4933579;28;38414;-77
2023/12/08 02:46:44;;;;;;;35.07;22.60;;;3.10;99.90;;;;;;4937799;28;38151;-77
2023/12/08 02:49:10;;;;;;;39.43;22.57;;;3.00;99.90;;;;;;4944725;28;36287;-77
2023/12/08 02:51:36;;;;;;;37.43;23.67;;;3.10;99.90;;;;;;4938536;28;38670;-77
2023/12/08 02:54:02;;;;;;;36.87;22.93;;;3.10;99.90;;;;;;4938607;28;37786;-77
2023/12/08 02:56:28;;;;;;;36.47;23.30;;;3.10;99.90;;;;;;4941767;28;38324;-79
2023/12/08 02:58:54;;;;;;;39.63;24.57;;;3.10;99.90;;;;;;4965204;28;38410;-78
2023/12/08 03:01:20;;;;;;;39.67;24.17;;;3.10;99.90;;;;;;4939412;28;38782;-78
2023/12/08 03:03:46;;;;;;;38.03;23.43;;;3.10;99.90;;;;;;4939355;28;37754;-78
2023/12/08 03:06:13;;;;;;;41.10;25.20;;;3.10;99.90;;;;;;4952558;28;37272;-77
2023/12/08 03:08:39;;;;;;;42.87;24.80;;;3.10;99.90;;;;;;4965912;28;37431;-77
2023/12/08 03:11:05;;;;;;;39.93;24.90;;;3.10;99.90;;;;;;4954248;28;38919;-78
2023/12/08 03:13:31;;;;;;;53.23;27.33;;;3.10;99.90;;;;;;4958058;28;40075;-77
2023/12/08 03:15:57;;;;;;;42.83;24.90;;;3.10;99.90;;;;;;4938009;28;39344;-77
2023/12/08 03:18:23;;;;;;;41.70;25.00;;;3.10;99.90;;;;;;4928887;28;36490;-77
2023/12/08 03:20:49;;;;;;;50.77;27.30;;;3.10;99.90;;;;;;4933050;28;38866;-77
2023/12/08 03:23:15;;;;;;;46.63;26.57;;;3.10;99.90;;;;;;4948828;28;39289;-77
2023/12/08 03:25:41;;;;;;;42.20;24.73;;;3.10;99.90;;;;;;4940284;28;37213;-77
2023/12/08 03:28:08;;;;;;;46.00;26.47;;;3.10;99.90;;;;;;4923974;28;36124;-77
2023/12/08 03:30:34;;;;;;;39.00;23.67;;;3.00;99.90;;;;;;4952710;28;37863;-77
2023/12/08 03:33:06;;;;;;;39.60;24.43;;;3.00;99.90;;;;;;4962504;28;38649;-77
2023/12/08 03:35:32;;;;;;;42.28;23.73;;;3.10;99.90;;;;;;4969659;28;48881;-78
2023/12/08 03:37:58;;;;;;;42.63;25.77;;;3.10;99.90;;;;;;4956114;28;36487;-77
2023/12/08 03:40:24;;;;;;;46.83;26.90;;;3.00;99.90;;;;;;4950655;28;38483;-77
2023/12/08 03:42:50;;;;;;;48.60;25.40;;;3.10;99.90;;;;;;4956393;28;37702;-77
2023/12/08 03:45:16;;;;;;;44.97;26.23;;;3.10;99.90;;;;;;4970110;28;39245;-78
2023/12/08 03:47:43;;;;;;;38.60;25.50;;;3.10;99.90;;;;;;4955179;28;37389;-78
2023/12/08 03:50:09;;;;;;;40.70;24.30;;;3.10;99.90;;;;;;4959906;28;39872;-77
2023/12/08 03:52:35;;;;;;;38.93;24.00;;;3.10;99.90;;;;;;4970609;28;39266;-78
2023/12/08 03:55:02;;;;;;;42.10;23.77;;;3.10;99.90;;;;;;4968750;28;37972;-78
2023/12/08 03:57:30;;;;;;;39.33;24.13;;;3.10;99.90;;;;;;4958789;28;36283;-78
2023/12/08 03:59:56;;;;;;;42.33;25.93;;;3.20;99.90;;;;;;4958333;28;38871;-78
2023/12/08 04:02:22;;;;;;;45.50;24.77;;;3.20;99.90;;;;;;4980591;28;38993;-78
2023/12/08 04:04:48;;;;;;;39.37;22.13;;;3.20;99.90;;;;;;4964520;28;37299;-76
2023/12/08 04:07:14;;;;;;;39.70;23.70;;;3.20;99.90;;;;;;4976128;28;37226;-78
2023/12/08 04:09:40;;;;;;;38.93;23.87;;;3.20;99.90;;;;;;4965386;28;38695;-77
2023/12/08 04:12:06;;;;;;;40.07;23.50;;;3.30;99.90;;;;;;4955556;28;37990;-78
2023/12/08 04:14:32;;;;;;;43.97;23.43;;;3.30;99.90;;;;;;4973786;28;38874;-77
2023/12/08 04:16:58;;;;;;;38.70;23.97;;;3.30;99.90;;;;;;4954673;28;36118;-77
2023/12/08 04:19:24;;;;;;;37.03;22.50;;;3.30;99.90;;;;;;4947626;28;37560;-77
2023/12/08 04:21:51;;;;;;;41.30;23.90;;;3.40;99.90;;;;;;4966880;28;39803;-78
2023/12/08 04:24:17;;;;;;;37.73;22.10;;;3.40;99.90;;;;;;4963485;28;38418;-77
2023/12/08 04:26:44;;;;;;;34.47;22.83;;;3.40;99.90;;;;;;4966162;28;38456;-77
2023/12/08 04:29:10;;;;;;;36.83;21.07;;;3.30;99.90;;;;;;4966648;28;38403;-77
2023/12/08 04:31:36;;;;;;;36.40;22.73;;;3.30;99.90;;;;;;4957475;28;38525;-79
2023/12/08 04:34:02;;;;;;;31.83;22.73;;;3.40;99.90;;;;;;4955219;28;37547;-78
2023/12/08 04:36:28;;;;;;;35.27;22.53;;;3.40;99.90;;;;;;4955281;28;37123;-78
2023/12/08 04:38:55;;;;;;;37.13;23.13;;;3.40;99.90;;;;;;4962028;28;38983;-78
2023/12/08 04:41:21;;;;;;;33.07;21.83;;;3.40;99.90;;;;;;4948359;28;37764;-77
2023/12/08 04:43:47;;;;;;;41.03;23.43;;;3.40;99.90;;;;;;4951614;28;38781;-77
2023/12/08 04:46:19;;;;;;;35.10;23.20;;;3.50;99.90;;;;;;4949610;28;37780;-78
2023/12/08 04:48:45;;;;;;;32.25;22.05;;;3.50;99.90;;;;;;4954314;28;39452;-78
2023/12/08 04:51:11;;;;;;;34.73;22.07;;;3.50;99.90;;;;;;4956112;28;38699;-78
2023/12/08 04:53:37;;;;;;;37.43;21.97;;;3.50;99.90;;;;;;4953738;28;39950;-77
2023/12/08 04:56:04;;;;;;;40.63;24.50;;;3.50;99.90;;;;;;4967189;28;37155;-78
2023/12/08 04:58:33;;;;;;;36.83;22.77;;;3.50;99.90;;;;;;4949407;28;37936;-78
2023/12/08 05:00:59;;;;;;;40.63;23.57;;;3.50;99.90;;;;;;4965054;28;38266;-78
2023/12/08 05:03:25;;;;;;;36.43;22.87;;;3.50;99.90;;;;;;4959935;28;39913;-78
2023/12/08 05:05:51;;;;;;;41.37;23.10;;;3.50;99.90;;;;;;4985080;28;36677;-76
2023/12/08 05:08:17;;;;;;;39.10;23.67;;;3.60;99.90;;;;;;4956997;28;39361;-78
2023/12/08 05:10:44;;;;;;;42.77;24.50;;;3.60;99.90;;;;;;4972393;28;38923;-78
2023/12/08 05:13:11;;;;;;;35.97;22.53;;;3.60;99.90;;;;;;4956256;28;38366;-78
2023/12/08 05:15:37;;;;;;;37.23;23.33;;;3.60;99.90;;;;;;4972561;28;37299;-78
2023/12/08 05:18:03;;;;;;;31.13;20.30;;;3.60;99.90;;;;;;4958200;28;38098;-78
2023/12/08 05:20:29;;;;;;;47.97;27.00;;;3.70;99.90;;;;;;4969599;28;39528;-78
2023/12/08 05:22:55;;;;;;;36.50;22.60;;;3.70;99.90;;;;;;4959407;28;40546;-77
2023/12/08 05:25:22;;;;;;;35.80;23.10;;;3.70;99.90;;;;;;4949747;28;37152;-77
2023/12/08 05:27:48;;;;;;;38.87;24.50;;;3.70;99.90;;;;;;4970334;28;38396;-78
2023/12/08 05:30:14;;;;;;;36.33;23.73;;;3.80;99.90;;;;;;4957175;28;37824;-77
2023/12/08 05:32:40;;;;;;;35.53;22.00;;;3.80;99.90;;;;;;4955961;28;37489;-78
2023/12/08 05:35:06;;;;;;;33.10;22.20;;;3.80;99.90;;;;;;4984866;28;36331;-78
2023/12/08 05:37:33;;;;;;;31.23;21.97;;;3.80;99.90;;;;;;4948454;28;37735;-78
2023/12/08 05:39:59;;;;;;;37.23;23.17;;;3.80;99.90;;;;;;4949139;28;37799;-78
2023/12/08 05:42:27;;;;;;;39.83;25.63;;;3.80;99.90;;;;;;4947608;28;38716;-77
2023/12/08 05:44:53;;;;;;;44.27;25.93;;;3.80;99.90;;;;;;4962766;28;37400;-77
2023/12/08 05:47:22;;;;;;;34.37;22.37;;;3.90;99.90;;;;;;4952067;28;39010;-78
2023/12/08 05:49:48;;;;;;;34.40;22.40;;;3.90;99.90;;;;;;4947236;28;38145;-77
2023/12/08 05:52:15;;;;;;;42.90;24.77;;;3.90;99.90;;;;;;4963047;28;38013;-77
2023/12/08 05:54:41;;;;;;;38.77;22.47;;;3.90;99.90;;;;;;4960538;28;37787;-77
2023/12/08 05:57:07;;;;;;;35.37;23.37;;;3.90;99.90;;;;;;4960785;28;38629;-78
2023/12/08 05:59:33;;;;;;;38.90;23.20;;;3.90;99.90;;;;;;4943280;28;39138;-77
2023/12/08 06:02:00;;;;;;;40.57;25.23;;;3.90;99.90;;;;;;4946246;28;37793;-77
2023/12/08 06:04:26;;;;;;;41.30;24.53;;;4.00;99.90;;;;;;4945130;28;37045;-76
2023/12/08 06:06:53;;;;;;;42.40;25.13;;;4.00;99.90;;;;;;4949364;28;20056;-77
2023/12/08 06:09:19;;;;;;;43.73;25.20;;;4.00;99.90;;;;;;4961547;28;39780;-78
2023/12/08 06:11:45;;;;;;;43.93;24.33;;;4.00;99.90;;;;;;4957393;28;37270;-77
2023/12/08 06:14:12;;;;;;;39.93;25.30;;;4.00;99.90;;;;;;4946627;28;37327;-78
2023/12/08 06:16:38;;;;;;;43.87;25.57;;;4.00;99.90;;;;;;4947718;28;39069;-76
2023/12/08 06:19:08;;;;;;;43.63;26.27;;;4.00;99.90;;;;;;4943518;28;38417;-76
2023/12/08 06:21:34;;;;;;;41.47;24.83;;;4.10;99.90;;;;;;4952174;28;38647;-77
2023/12/08 06:24:00;;;;;;;40.97;24.80;;;4.00;99.90;;;;;;4950444;28;36555;-76
2023/12/08 06:26:26;;;;;;;41.03;24.57;;;4.10;99.90;;;;;;4947193;28;46790;-77
2023/12/08 06:28:53;;;;;;;49.37;27.27;;;4.10;99.90;;;;;;4979986;28;37961;-77
2023/12/08 06:31:19;;;;;;;54.53;27.60;;;4.10;99.90;;;;;;4942474;28;37765;-76
2023/12/08 06:33:45;;;;;;;47.70;26.80;;;4.10;99.90;;;;;;4951024;28;36456;-78
2023/12/08 06:36:11;;;;;;;54.70;27.23;;;4.10;99.90;;;;;;4972381;28;39860;-77
2023/12/08 06:38:38;;;;;;;47.03;27.40;;;4.10;99.90;;;;;;4951954;28;38871;-78
2023/12/08 06:41:05;;;;;;;64.13;32.63;;;4.10;99.90;;;;;;4972435;28;38481;-77
2023/12/08 06:43:32;;;;;;;49.93;27.73;;;4.10;99.90;;;;;;4960036;28;36143;-77
2023/12/08 06:45:58;;;;;;;62.63;29.87;;;4.10;99.90;;;;;;4950041;28;39108;-78
2023/12/08 06:48:24;;;;;;;52.90;29.00;;;4.10;99.90;;;;;;4968073;28;37857;-78
2023/12/08 06:50:53;;;;;;;56.47;30.17;;;4.10;99.90;;;;;;4945450;28;38956;-79
2023/12/08 06:53:19;;;;;;;48.57;27.77;;;4.10;99.90;;;;;;4952981;28;36632;-78
2023/12/08 06:55:45;;;;;;;67.93;32.43;;;4.10;99.90;;;;;;4951300;28;39386;-76
2023/12/08 06:58:11;;;;;;;66.90;33.67;;;4.20;99.90;;;;;;4965920;28;38849;-77
2023/12/08 07:00:37;;;;;;;60.07;29.13;;;4.20;99.90;;;;;;4963814;28;38165;-77
2023/12/08 07:03:05;;;;;;;80.80;34.40;;;4.20;99.90;;;;;;4955307;28;35846;-79
2023/12/08 07:05:31;;;;;;;59.77;31.77;;;4.20;99.90;;;;;;4967851;28;38754;-77
2023/12/08 07:07:58;;;;;;;68.07;32.40;;;4.20;99.90;;;;;;4959082;28;38312;-77
2023/12/08 07:10:24;;;;;;;77.97;37.07;;;4.20;99.90;;;;;;4953924;28;37355;-78
2023/12/08 07:12:50;;;;;;;75.97;34.87;;;4.20;99.90;;;;;;4955624;28;36722;-79
2023/12/08 07:15:16;;;;;;;64.80;33.77;;;4.30;99.90;;;;;;4966432;28;39983;-78
2023/12/08 07:17:42;;;;;;;78.87;35.30;;;4.30;99.90;;;;;;4949924;28;37989;-77
2023/12/08 07:20:12;;;;;;;86.00;36.87;;;4.30;99.90;;;;;;4966951;28;38009;-78
2023/12/08 07:22:38;;;;;;;74.23;35.10;;;4.30;99.90;;;;;;4946183;28;36742;-76
2023/12/08 07:25:05;;;;;;;65.63;33.43;;;4.40;99.90;;;;;;4954783;28;37725;-77
2023/12/08 07:27:34;;;;;;;70.67;33.63;;;4.40;99.90;;;;;;4969514;28;38786;-77
2023/12/08 07:30:03;;;;;;;90.50;38.17;;;4.40;99.90;;;;;;4950039;28;38712;-77
2023/12/08 07:32:29;;;;;;;75.00;34.87;;;4.40;99.90;;;;;;4960455;28;37851;-76
2023/12/08 07:34:55;;;;;;;87.70;35.67;;;4.40;99.90;;;;;;4962131;28;38873;-76
2023/12/08 07:37:22;;;;;;;117.03;42.30;;;4.40;99.90;;;;;;4947659;28;38398;-76
2023/12/08 07:39:49;;;;;;;75.50;35.60;;;4.50;99.90;;;;;;4963629;28;37604;-78
2023/12/08 07:42:15;;;;;;;97.63;37.67;;;4.40;99.90;;;;;;4949060;28;37243;-77
2023/12/08 07:44:41;;;;;;;89.33;38.67;;;4.50;99.90;;;;;;4962607;28;38605;-76
2023/12/08 07:47:08;;;;;;;113.77;43.00;;;4.60;99.90;;;;;;4958223;28;39827;-76
2023/12/08 07:49:34;;;;;;;104.30;40.27;;;4.50;99.90;;;;;;4950641;28;38945;-79
2023/12/08 07:52:00;;;;;;;96.40;39.10;;;4.50;99.90;;;;;;4967913;28;37675;-77
2023/12/08 07:54:31;;;;;;;79.87;35.70;;;4.50;99.90;;;;;;4947217;28;37661;-78
2023/12/08 07:56:58;;;;;;;108.80;38.53;;;4.60;99.90;;;;;;4966675;28;38561;-79
2023/12/08 07:59:25;;;;;;;128.67;43.87;;;4.60;99.90;;;;;;4953941;28;37713;-78
2023/12/08 08:01:51;;;;;;;101.80;40.43;;;4.70;99.90;;;;;;4952980;28;38136;-78
2023/12/08 08:04:17;;;;;;;115.83;42.97;;;4.70;99.90;;;;;;4970421;28;38459;-78
2023/12/08 08:06:43;;;;;;;141.07;44.63;;;4.80;99.90;;;;;;4945580;28;38633;-78
2023/12/08 08:09:17;;;;;;;90.33;38.80;;;4.80;99.90;;;;;;4958368;28;39344;-80
2023/12/08 08:11:44;;;;;;;122.90;39.70;;;4.80;99.90;;;;;;4967573;28;37785;-77
2023/12/08 08:14:10;;;;;;;135.07;41.90;;;4.80;99.90;;;;;;4948711;28;37725;-80
2023/12/08 08:16:37;;;;;;;106.97;40.30;;;4.90;99.90;;;;;;4960492;28;38140;-77
2023/12/08 08:19:03;;;;;;;107.80;42.23;;;4.90;99.90;;;;;;4973880;28;38478;-79
2023/12/08 08:21:29;;;;;;;114.13;40.73;;;5.00;99.90;;;;;;4966145;28;37646;-78
2023/12/08 08:23:55;;;;;;;127.47;44.03;;;5.10;99.90;;;;;;4953711;28;39060;-77
2023/12/08 08:26:23;;;;;;;134.70;44.70;;;5.10;99.90;;;;;;4952321;28;39018;-78
2023/12/08 08:28:50;;;;;;;114.07;42.77;;;5.10;99.90;;;;;;4982078;28;37782;-78
2023/12/08 08:31:19;;;;;;;112.47;39.07;;;5.20;99.90;;;;;;4947747;28;36458;-77
2023/12/08 08:33:45;;;;;;;91.73;38.57;;;5.20;99.90;;;;;;4960322;28;38661;-79
2023/12/08 08:36:12;;;;;;;123.07;42.37;;;5.20;99.90;;;;;;4956181;28;38088;-79
2023/12/08 08:38:38;;;;;;;115.60;42.00;;;5.30;99.90;;;;;;4964939;28;37957;-79
2023/12/08 08:41:04;;;;;;;97.40;38.63;;;5.30;99.90;;;;;;4960453;28;36651;-79
2023/12/08 08:43:30;;;;;;;113.63;40.07;;;5.40;99.90;;;;;;4958451;28;38696;-79
2023/12/08 08:45:56;;;;;;;128.07;40.60;;;5.40;99.90;;;;;;4959695;28;40147;-79
2023/12/08 08:48:22;;;;;;;159.97;48.17;;;5.50;99.90;;;;;;4980851;28;39162;-79
2023/12/08 08:50:49;;;;;;;135.13;41.73;;;5.50;99.90;;;;;;4974525;28;37155;-79
2023/12/08 08:53:16;;;;;;;114.40;41.43;;;5.50;99.90;;;;;;4969501;28;39709;-78
2023/12/08 08:55:43;;;;;;;102.53;38.37;;;5.50;99.90;;;;;;4957394;28;38013;-78
2023/12/08 08:58:09;;;;;;;114.87;41.27;;;5.50;99.90;;;;;;4950208;28;37704;-78
2023/12/08 09:00:35;;;;;;;94.23;38.30;;;5.60;99.90;;;;;;4957111;28;36399;-78
2023/12/08 09:03:03;;;;;;;115.70;43.00;;;5.60;99.90;;;;;;4976615;28;37625;-79
2023/12/08 09:05:30;;;;;;;117.40;41.43;;;5.70;99.90;;;;;;4965774;28;38679;-77
2023/12/08 09:07:56;;;;;;;139.70;43.87;;;5.70;99.90;;;;;;4973292;28;37498;-79
2023/12/08 09:10:23;;;;;;;132.53;43.17;;;5.80;99.90;;;;;;4967433;28;36299;-79
2023/12/08 09:12:49;;;;;;;111.37;39.70;;;5.80;99.90;;;;;;4969618;28;37581;-79
2023/12/08 09:15:16;;;;;;;119.40;41.10;;;5.90;99.90;;;;;;4965554;28;39463;-78
2023/12/08 09:17:42;;;;;;;111.70;39.70;;;5.90;99.90;;;;;;4960980;28;37433;-78
2023/12/08 09:20:13;;;;;;;101.10;38.40;;;5.90;99.90;;;;;;4971224;28;36733;-79
2023/12/08 09:22:41;;;;;;;121.10;43.07;;;6.00;99.90;;;;;;4969500;28;37895;-78
2023/12/08 09:25:08;;;;;;;117.87;40.67;;;6.00;99.90;;;;;;4961330;28;39035;-77
2023/12/08 09:27:35;;;;;;;107.47;41.43;;;6.10;99.90;;;;;;4968059;28;38630;-79
2023/12/08 09:30:02;;;;;;;142.10;44.47;;;6.20;99.90;;;;;;4959973;28;37318;-78
2023/12/08 09:32:28;;;;;;;82.70;36.87;;;6.30;99.90;;;;;;4974863;28;38716;-78
2023/12/08 09:34:54;;;;;;;108.10;40.47;;;6.30;99.90;;;;;;4961717;28;37493;-78
2023/12/08 09:37:21;;;;;;;119.87;40.33;;;6.40;99.90;;;;;;4956603;28;37560;-78
2023/12/08 09:39:47;;;;;;;85.67;36.93;;;6.40;99.90;;;;;;4978184;28;36327;-78
2023/12/08 09:42:42;;;;;;;101.90;37.43;;;6.50;99.90;;;;;;4962720;28;37809;-78
2023/12/08 09:45:12;;;;;;;97.40;39.03;;;6.50;99.90;;;;;;4956794;28;38137;-78
2023/12/08 09:47:40;;;;;;;87.37;34.43;;;6.60;99.90;;;;;;4950096;28;36991;-77
2023/12/08 09:50:09;;;;;;;92.53;36.60;;;6.60;99.90;;;;;;4967181;28;38262;-78
2023/12/08 09:52:35;;;;;;;100.60;37.10;;;6.70;99.90;;;;;;4963649;28;38051;-78
2023/12/08 09:55:03;;;;;;;87.03;36.97;;;6.70;99.90;;;;;;5001809;28;37404;-78
2023/12/08 09:57:31;;;;;;;99.03;37.40;;;6.70;99.90;;;;;;4956773;28;47366;-77
2023/12/08 10:00:15;;;;;;;107.63;37.67;;;6.80;99.90;;;;;;4960073;28;38361;-77
2023/12/08 10:02:41;;;;;;;108.60;36.10;;;6.80;99.90;;;;;;4953993;28;38146;-77
2023/12/08 10:05:10;;;;;;;84.07;34.87;;;6.90;99.90;;;;;;4969043;28;38739;-76
2023/12/08 10:07:40;;;;;;;92.07;34.83;;;6.90;99.90;;;;;;4960706;28;37531;-77
2023/12/08 10:10:08;;;;;;;82.43;34.37;;;7.00;99.90;;;;;;4975600;28;37829;-77
2023/12/08 10:12:36;;;;;;;81.60;35.13;;;7.00;99.90;;;;;;4973728;28;38132;-77
2023/12/08 10:15:04;;;;;;;68.90;32.17;;;7.10;99.90;;;;;;4968674;28;39176;-76
2023/12/08 10:17:30;;;;;;;104.03;40.20;;;7.20;99.90;;;;;;4952120;28;38335;-75
2023/12/08 10:20:10;;;;;;;103.50;39.60;;;7.20;99.90;;;;;;4959484;28;37420;-77
2023/12/08 10:22:53;;;;;;;83.30;36.47;;;7.20;99.90;;;;;;4974338;28;47063;-78
2023/12/08 10:25:29;;;;;;;97.93;37.83;;;7.30;99.90;;;;;;4974881;28;40216;-75
2023/12/08 10:27:56;;;;;;;75.73;34.40;;;7.30;99.90;;;;;;4967661;28;39332;-75
2023/12/08 10:30:26;;;;;;;78.43;33.83;;;7.40;99.90;;;;;;4958069;28;36471;-76
2023/12/08 10:32:53;;;;;;;88.10;36.07;;;7.40;99.90;;;;;;4971680;28;39459;-76
2023/12/08 10:35:20;;;;;;;80.57;35.70;;;7.50;99.90;;;;;;4961338;28;37712;-76
2023/12/08 10:37:46;;;;;;;96.67;38.07;;;7.50;99.90;;;;;;4956818;28;37402;-76
2023/12/08 10:40:17;;;;;;;118.83;39.07;;;7.60;99.90;;;;;;4959162;28;36378;-75
2023/12/08 10:42:45;;;;;;;83.23;33.60;;;7.60;99.90;;;;;;4962483;28;38630;-76
2023/12/08 10:45:11;;;;;;;92.27;34.77;;;7.70;99.90;;;;;;4952165;28;38468;-76
2023/12/08 10:47:40;;;;;;;111.90;36.87;;;7.80;99.90;;;;;;4950168;28;38579;-78
2023/12/08 10:50:09;;;;;;;97.67;33.70;;;7.70;99.90;;;;;;4968749;28;37680;-77
2023/12/08 10:52:38;;;;;;;120.47;35.67;;;7.70;99.90;;;;;;4941489;28;38165;-77
2023/12/08 10:55:09;;;;;;;85.97;33.33;;;7.80;99.90;;;;;;4959986;28;40549;-76
2023/12/08 10:57:36;;;;;;;117.40;35.43;;;7.80;99.90;;;;;;4952472;28;37926;-76
2023/12/08 11:00:31;;;;;;;71.90;31.63;;;7.80;99.90;;;;;;4968592;28;37617;-76
2023/12/08 11:02:54;;;;;;;82.73;32.33;;;7.80;99.90;;;;;;4963747;28;48451;-75
2023/12/08 11:05:35;;;;;;;105.97;34.20;;;7.80;99.90;;;;;;4967306;28;38561;-77
2023/12/08 11:08:03;;;;;;;98.70;34.80;;;7.80;99.90;;;;;;4964916;28;38666;-76
2023/12/08 11:10:35;;;;;;;106.03;35.27;;;7.90;99.90;;;;;;4957511;28;37631;-76
2023/12/08 11:13:24;;;;;;;94.30;33.87;;;8.00;99.90;;;;;;4960105;28;37620;-77
2023/12/08 11:16:21;;;;;;;82.00;31.37;;;8.00;99.90;;;;;;4979518;28;47294;-76
2023/12/08 11:18:47;;;;;;;84.40;33.27;;;8.10;99.90;;;;;;4973461;28;49040;-76
2023/12/08 11:21:14;;;;;;;110.50;36.63;;;8.10;99.90;;;;;;4949633;28;36322;-77
2023/12/08 11:23:41;;;;;;;80.20;30.47;;;8.10;99.90;;;;;;4958042;28;37563;-77
2023/12/08 11:26:39;;;;;;;79.27;29.83;;;8.20;99.90;;;;;;4963572;28;38491;-77
2023/12/08 11:29:18;;;;;;;79.00;30.93;;;8.20;99.90;;;;;;4952028;28;38236;-76
2023/12/08 11:32:07;;;;;;;88.37;30.40;;;8.20;99.90;;;;;;4957576;28;36265;-76
2023/12/08 11:34:56;;;;;;;103.33;34.63;;;8.20;99.90;;;;;;4970584;28;48592;-77
2023/12/08 11:37:23;;;;;;;78.87;29.90;;;8.20;99.90;;;;;;4958693;28;37788;-76
2023/12/08 11:39:50;;;;;;;142.40;39.73;;;8.20;99.90;;;;;;4954845;28;37456;-76
2023/12/08 11:42:21;;;;;;;118.70;33.57;;;8.30;99.90;;;;;;4954732;28;36730;-78
2023/12/08 11:44:48;;;;;;;102.07;33.33;;;8.30;99.90;;;;;;4989154;28;38036;-76
2023/12/08 11:47:23;;;;;;;104.93;32.53;;;8.30;99.90;;;;;;4963180;28;38683;-76
2023/12/08 11:49:51;;;;;;;94.43;32.30;;;8.40;99.90;;;;;;4970216;28;37780;-76
2023/12/08 11:52:22;;;;;;;83.63;30.50;;;8.40;99.90;;;;;;4974321;28;38295;-75
2023/12/08 11:55:07;;;;;;;120.23;35.10;;;8.50;99.90;;;;;;4963236;28;38856;-76
2023/12/08 11:57:37;;;;;;;100.20;33.53;;;8.60;99.90;;;;;;4956273;28;47818;-76
2023/12/08 12:00:08;;;;;;;120.67;34.93;;;8.60;99.90;;;;;;4955854;28;38613;-76
2023/12/08 12:02:35;;;;;;;117.30;35.50;;;8.60;99.90;;;;;;4951293;28;36803;-76
2023/12/08 12:05:01;;;;;;;98.50;33.80;;;8.60;99.90;;;;;;4972759;28;38900;-76
2023/12/08 12:07:28;;;;;;;116.70;35.57;;;8.60;99.90;;;;;;4967608;28;38977;-76
2023/12/08 12:09:55;;;;;;;119.37;34.57;;;8.60;99.90;;;;;;4948386;28;37809;-76
2023/12/08 12:12:31;;;;;;;146.37;40.07;;;8.70;99.90;;;;;;4947292;28;36331;-76
2023/12/08 12:15:01;;;;;;;126.07;37.87;;;8.70;99.90;;;;;;4983253;28;38882;-77
2023/12/08 12:17:28;;;;;;;130.57;37.57;;;8.70;99.90;;;;;;4966593;28;38434;-75
2023/12/08 12:19:55;;;;;;;108.67;33.60;;;8.60;99.90;;;;;;4987309;28;38547;-76
2023/12/08 12:22:22;;;;;;;125.67;34.60;;;8.70;99.90;;;;;;4993427;28;37015;-76
2023/12/08 12:24:48;;;;;;;107.70;33.60;;;8.70;99.90;;;;;;4940828;28;39273;-73
2023/12/08 12:27:15;;;;;;;113.33;32.90;;;8.80;99.90;;;;;;4952478;28;39002;-77
2023/12/08 12:29:42;;;;;;;96.53;32.33;;;8.80;99.90;;;;;;4949753;28;39681;-76
2023/12/08 12:32:08;;;;;;;102.40;33.47;;;8.80;99.90;;;;;;4957451;28;37020;-78
2023/12/08 12:34:39;;;;;;;102.80;34.43;;;8.80;99.90;;;;;;4969374;28;40041;-75
2023/12/08 12:37:05;;;;;;;98.33;31.13;;;8.80;99.90;;;;;;4955724;28;38253;-76